createdAt,value
2023-05-06T00:00:22.722Z,101789.22
2023-05-06T00:02:51.866Z,101776.72
2023-05-06T00:05:21.982Z,101763.03
2023-05-06T00:07:51.146Z,101769.19
2023-05-06T00:10:24.609Z,101771.78
2023-05-06T00:12:54.529Z,101764.25
2023-05-06T00:15:23.524Z,101770.41
2023-05-06T00:17:52.449Z,101765.81
2023-05-06T00:20:23.740Z,101772.00
2023-05-06T00:22:52.967Z,101773.34
2023-05-06T00:25:23.441Z,101769.38
2023-05-06T00:27:54.430Z,101766.94
2023-05-06T00:30:26.402Z,101767.88
2023-05-06T00:32:55.129Z,101758.78
2023-05-06T00:35:23.762Z,101758.31
2023-05-06T00:37:58.863Z,101760.84
2023-05-06T00:40:27.552Z,101758.69
2023-05-06T00:43:00.312Z,101752.69
2023-05-06T00:45:29.753Z,101757.09
2023-05-06T00:47:59.097Z,101766.47
2023-05-06T00:50:32.467Z,101763.91
2023-05-06T00:53:03.669Z,101762.28
2023-05-06T00:55:33.902Z,101754.53
2023-05-06T00:58:04.719Z,101755.53
2023-05-06T01:00:35.521Z,101751.72
2023-05-06T01:03:04.098Z,101756.94
2023-05-06T01:05:45.097Z,101750.91
2023-05-06T01:08:24.148Z,101748.75
2023-05-06T01:10:57.615Z,101749.06
2023-05-06T01:13:37.989Z,101743.25
2023-05-06T01:16:08.535Z,101746.78
2023-05-06T01:18:40.878Z,101738.31
2023-05-06T01:21:11.461Z,101744.38
2023-05-06T01:23:58.528Z,101739.66
2023-05-06T01:26:28.356Z,101753.66
2023-05-06T01:29:02.603Z,101749.16
2023-05-06T01:31:39.320Z,101748.19
2023-05-06T01:34:20.781Z,101742.63
2023-05-06T01:36:59.979Z,101734.22
2023-05-06T01:39:33.896Z,101721.09
2023-05-06T01:42:04.391Z,101742.31
2023-05-06T01:44:40.182Z,101741.38
2023-05-06T01:47:10.060Z,101736.94
2023-05-06T01:49:44.510Z,101740.84
2023-05-06T01:52:13.831Z,101737.34
2023-05-06T01:54:44.543Z,101737.03
2023-05-06T01:57:16.130Z,101739.56
2023-05-06T01:59:46.895Z,101730.00
2023-05-06T02:02:17.671Z,101735.75
2023-05-06T02:04:47.088Z,101743.59
2023-05-06T02:07:15.580Z,101754.66
2023-05-06T02:09:46.253Z,101755.69
2023-05-06T02:12:18.746Z,101746.13
2023-05-06T02:14:57.136Z,101763.81
2023-05-06T02:17:27.016Z,101762.16
2023-05-06T02:19:56.374Z,101763.41
2023-05-06T02:22:25.497Z,101770.34
2023-05-06T02:24:56.773Z,101770.97
2023-05-06T02:27:26.660Z,101767.78
2023-05-06T02:29:55.753Z,101769.22
2023-05-06T02:32:24.946Z,101760.22
2023-05-06T02:34:53.634Z,101755.03
2023-05-06T02:37:22.657Z,101759.22
2023-05-06T02:39:51.778Z,101764.66
2023-05-06T02:42:22.509Z,101764.09
2023-05-06T02:44:51.440Z,101770.47
2023-05-06T02:47:20.334Z,101762.09
2023-05-06T02:49:52.467Z,101767.56
2023-05-06T02:52:24.725Z,101757.59
2023-05-06T02:54:54.237Z,101748.94
2023-05-06T02:57:27.193Z,101755.78
2023-05-06T02:59:55.551Z,101760.53
2023-05-06T03:02:24.333Z,101750.72
2023-05-06T03:04:55.903Z,101747.88
2023-05-06T03:07:28.613Z,101757.28
2023-05-06T03:09:57.953Z,101755.25
2023-05-06T03:12:30.714Z,101759.88
2023-05-06T03:15:00.393Z,101748.84
2023-05-06T03:17:29.513Z,101752.31
2023-05-06T03:20:00.021Z,101743.84
2023-05-06T03:22:29.292Z,101760.66
2023-05-06T03:24:57.567Z,101755.25
2023-05-06T03:27:28.714Z,101761.72
2023-05-06T03:29:57.339Z,101755.00
2023-05-06T03:32:28.819Z,101753.88
2023-05-06T03:34:57.350Z,101739.50
2023-05-06T03:37:28.698Z,101746.06
2023-05-06T03:39:58.458Z,101744.72
2023-05-06T03:42:29.030Z,101738.41
2023-05-06T03:45:00.221Z,101752.78
2023-05-06T03:47:30.571Z,101742.63
2023-05-06T03:50:04.192Z,101744.72
2023-05-06T03:52:34.947Z,101744.72
2023-05-06T03:55:03.362Z,101745.19
2023-05-06T03:57:34.284Z,101756.81
2023-05-06T04:00:03.522Z,101757.69
2023-05-06T04:02:37.592Z,101751.84
2023-05-06T04:05:10.699Z,101755.63
2023-05-06T04:07:41.523Z,101751.97
2023-05-06T04:10:13.379Z,101750.34
2023-05-06T04:12:45.419Z,101748.50
2023-05-06T04:15:14.957Z,101742.03
2023-05-06T04:17:44.932Z,101751.06
2023-05-06T04:20:16.647Z,101748.59
2023-05-06T04:22:49.297Z,101747.09
2023-05-06T04:25:19.451Z,101753.56
2023-05-06T04:27:52.817Z,101748.72
2023-05-06T04:30:23.082Z,101754.97
2023-05-06T04:32:52.852Z,101765.75
2023-05-06T04:35:25.375Z,101764.25
2023-05-06T04:37:56.154Z,101769.31
2023-05-06T04:40:26.312Z,101763.84
2023-05-06T04:42:56.602Z,101768.03
2023-05-06T04:45:28.215Z,101772.22
2023-05-06T04:47:57.261Z,101762.91
2023-05-06T04:50:26.302Z,101769.47
2023-05-06T04:52:55.344Z,101777.75
2023-05-06T04:55:24.630Z,101786.47
2023-05-06T04:57:58.366Z,101789.31
2023-05-06T05:00:30.985Z,101791.13
2023-05-06T05:03:00.934Z,101789.72
2023-05-06T05:05:30.544Z,101794.28
2023-05-06T05:08:01.309Z,101799.53
2023-05-06T05:10:35.739Z,101798.56
2023-05-06T05:13:08.414Z,101802.00
2023-05-06T05:15:40.275Z,101803.94
2023-05-06T05:18:11.446Z,101804.97
2023-05-06T05:20:43.987Z,101804.16
2023-05-06T05:23:16.623Z,101806.38
2023-05-06T05:25:51.492Z,101804.59
2023-05-06T05:28:41.375Z,101813.00
2023-05-06T05:31:11.591Z,101822.53
2023-05-06T05:33:40.131Z,101832.75
2023-05-06T05:36:12.720Z,101827.09
2023-05-06T05:38:45.640Z,101824.00
2023-05-06T05:41:17.776Z,101823.47
2023-05-06T05:43:46.626Z,101821.97
2023-05-06T05:46:18.774Z,101833.00
2023-05-06T05:48:50.788Z,101830.38
2023-05-06T05:51:21.357Z,101831.84
2023-05-06T05:53:53.689Z,101818.63
2023-05-06T05:56:24.621Z,101821.38
2023-05-06T05:58:54.085Z,101812.56
2023-05-06T06:01:25.216Z,101819.84
2023-05-06T06:03:56.652Z,101817.81
2023-05-06T06:06:26.783Z,101809.06
2023-05-06T06:08:57.094Z,101821.72
2023-05-06T06:11:28.850Z,101818.28
2023-05-06T06:13:58.150Z,101816.50
2023-05-06T06:16:29.238Z,101816.66
2023-05-06T06:18:58.607Z,101812.63
2023-05-06T06:21:32.587Z,101811.06
2023-05-06T06:24:01.181Z,101812.88
2023-05-06T06:26:30.592Z,101816.53
2023-05-06T06:29:01.744Z,101811.06
2023-05-06T06:31:34.151Z,101804.59
2023-05-06T06:34:06.633Z,101813.25
2023-05-06T06:36:35.475Z,101810.66
2023-05-06T06:39:11.724Z,101813.44
2023-05-06T06:41:42.087Z,101814.91
2023-05-06T06:44:12.107Z,101814.91
2023-05-06T06:46:44.997Z,101822.03
2023-05-06T06:49:13.892Z,101815.84
2023-05-06T06:51:43.488Z,101822.94
2023-05-06T06:54:21.349Z,101815.63
2023-05-06T06:56:51.494Z,101808.19
2023-05-06T06:59:20.526Z,101821.56
2023-05-06T07:01:57.437Z,101819.25
2023-05-06T07:04:28.067Z,101815.41
2023-05-06T07:06:58.276Z,101812.81
2023-05-06T07:09:30.753Z,101805.47
2023-05-06T07:12:01.096Z,101814.81
2023-05-06T07:14:33.483Z,101818.19
2023-05-06T07:17:03.922Z,101817.38
2023-05-06T07:19:33.815Z,101823.03
2023-05-06T07:22:06.283Z,101817.03
2023-05-06T07:24:38.228Z,101820.31
2023-05-06T07:27:07.802Z,101810.59
2023-05-06T07:29:37.645Z,101819.72
2023-05-06T07:32:14.715Z,101814.50
2023-05-06T07:34:47.216Z,101823.72
2023-05-06T07:37:18.167Z,101831.41
2023-05-06T07:39:48.318Z,101818.94
2023-05-06T07:42:17.242Z,101822.44
2023-05-06T07:44:50.877Z,101817.03
2023-05-06T07:47:36.519Z,101819.81
2023-05-06T07:50:06.890Z,101822.53
2023-05-06T07:52:36.831Z,101822.34
2023-05-06T07:55:09.375Z,101828.75
2023-05-06T07:57:42.850Z,101822.44
2023-05-06T08:00:14.870Z,101824.94
2023-05-06T08:02:47.769Z,101813.59
2023-05-06T08:05:19.490Z,101818.16
2023-05-06T08:07:58.730Z,101817.78
2023-05-06T08:10:29.305Z,101812.63
2023-05-06T08:12:58.204Z,101824.03
2023-05-06T08:15:28.331Z,101825.59
2023-05-06T08:18:13.689Z,101819.63
2023-05-06T08:20:51.230Z,101818.13
2023-05-06T08:23:20.875Z,101823.47
2023-05-06T08:25:54.453Z,101810.31
2023-05-06T08:28:25.515Z,101808.94
2023-05-06T08:30:55.152Z,101818.16
2023-05-06T08:33:27.923Z,101809.00
2023-05-06T08:36:01.102Z,101812.13
2023-05-06T08:38:31.042Z,101812.47
2023-05-06T08:41:06.183Z,101815.91
2023-05-06T08:43:42.389Z,101818.31
2023-05-06T08:46:13.047Z,101823.84
2023-05-06T08:48:45.222Z,101824.16
2023-05-06T08:51:20.893Z,101820.66
2023-05-06T08:53:52.115Z,101816.38
2023-05-06T08:56:29.214Z,101818.22
2023-05-06T08:59:01.787Z,101820.88
2023-05-06T09:01:34.702Z,101813.91
2023-05-06T09:04:06.420Z,101807.88
2023-05-06T09:06:35.095Z,101808.84
2023-05-06T09:09:03.803Z,101812.34
2023-05-06T09:11:39.649Z,101817.19
2023-05-06T09:14:13.178Z,101805.63
2023-05-06T09:16:45.025Z,101801.47
2023-05-06T09:19:18.294Z,101801.19
2023-05-06T09:21:50.885Z,101812.16
2023-05-06T09:24:20.091Z,101804.59
2023-05-06T09:26:52.747Z,101803.28
2023-05-06T09:29:23.612Z,101801.31
2023-05-06T09:31:55.784Z,101806.13
2023-05-06T09:34:29.134Z,101798.50
2023-05-06T09:36:59.398Z,101791.00
2023-05-06T09:39:29.159Z,101791.09
2023-05-06T09:42:12.124Z,101793.78
2023-05-06T09:44:41.179Z,101787.59
2023-05-06T09:47:11.203Z,101785.69
2023-05-06T09:49:42.244Z,101786.19
2023-05-06T09:52:14.610Z,101779.53
2023-05-06T09:54:47.222Z,101779.50
2023-05-06T09:57:21.013Z,101782.38
2023-05-06T09:59:53.158Z,101780.66
2023-05-06T10:02:24.152Z,101782.81
2023-05-06T10:04:59.269Z,101774.75
2023-05-06T10:07:31.006Z,101772.53
2023-05-06T10:10:02.030Z,101770.50
2023-05-06T10:12:32.365Z,101776.06
2023-05-06T10:15:04.763Z,101774.34
2023-05-06T10:17:34.849Z,101766.56
2023-05-06T10:20:11.554Z,101764.28
2023-05-06T10:22:52.505Z,101764.41
2023-05-06T10:25:32.974Z,101769.56
2023-05-06T10:28:06.354Z,101769.53
2023-05-06T10:30:39.421Z,101768.91
2023-05-06T10:33:11.402Z,101767.06
2023-05-06T10:35:55.223Z,101764.81
2023-05-06T10:38:37.256Z,101758.22
2023-05-06T10:41:09.381Z,101772.25
2023-05-06T10:43:43.101Z,101755.34
2023-05-06T10:46:26.465Z,101765.50
2023-05-06T10:49:21.112Z,101755.88
2023-05-06T10:55:01.963Z,101748.44
2023-05-06T10:57:45.163Z,101753.22
2023-05-06T11:00:18.068Z,101754.78
2023-05-06T11:02:53.030Z,101754.69
2023-05-06T11:05:23.228Z,101756.91
2023-05-06T11:07:55.378Z,101748.09
2023-05-06T11:10:36.108Z,101750.75
2023-05-06T11:13:25.808Z,101741.66
2023-05-06T11:16:02.902Z,101751.44
2023-05-06T11:18:56.957Z,101748.94
2023-05-06T11:21:42.425Z,101743.47
2023-05-06T11:24:25.018Z,101746.91
2023-05-06T11:26:55.450Z,101737.66
2023-05-06T11:29:27.541Z,101739.44
2023-05-06T11:31:58.863Z,101739.91
2023-05-06T11:34:30.480Z,101740.69
2023-05-06T11:37:04.399Z,101739.13
2023-05-06T11:39:40.823Z,101744.84
2023-05-06T11:42:13.496Z,101747.16
2023-05-06T11:44:42.387Z,101750.63
2023-05-06T11:47:12.100Z,101748.59
2023-05-06T11:49:44.442Z,101752.59
2023-05-06T11:52:15.589Z,101742.72
2023-05-06T11:55:01.986Z,101742.56
2023-05-06T11:57:39.213Z,101753.06
2023-05-06T12:00:10.780Z,101747.28
2023-05-06T12:02:44.712Z,101752.19
2023-05-06T12:05:14.941Z,101746.34
2023-05-06T12:07:46.411Z,101754.16
2023-05-06T12:10:17.952Z,101752.44
2023-05-06T12:13:11.058Z,101744.44
2023-05-06T12:15:41.662Z,101750.00
2023-05-06T12:18:12.917Z,101752.34
2023-05-06T12:20:43.033Z,101754.03
2023-05-06T12:23:29.649Z,101754.66
2023-05-06T12:26:13.235Z,101752.28
2023-05-06T12:28:46.533Z,101746.13
2023-05-06T12:31:22.559Z,101745.97
2023-05-06T12:33:53.049Z,101748.75
2023-05-06T12:36:23.552Z,101745.03
2023-05-06T12:39:02.800Z,101749.59
2023-05-06T12:41:42.650Z,101736.34
2023-05-06T12:44:38.606Z,101739.22
2023-05-06T12:47:09.841Z,101736.59
2023-05-06T12:49:50.041Z,101740.03
2023-05-06T12:52:23.087Z,101736.91
2023-05-06T12:54:52.831Z,101725.31
2023-05-06T12:57:25.046Z,101735.59
2023-05-06T12:59:54.262Z,101730.50
2023-05-06T13:02:23.434Z,101723.53
2023-05-06T13:04:54.954Z,101726.66
2023-05-06T13:07:23.630Z,101733.19
2023-05-06T13:09:52.435Z,101735.38
2023-05-06T13:12:23.760Z,101738.09
2023-05-06T13:14:55.757Z,101737.09
2023-05-06T13:17:25.748Z,101722.34
2023-05-06T13:19:55.693Z,101727.69
2023-05-06T13:22:26.074Z,101730.88
2023-05-06T13:24:55.078Z,101724.41
2023-05-06T13:27:29.834Z,101726.63
2023-05-06T13:29:58.850Z,101727.44
2023-05-06T13:32:27.492Z,101721.47
2023-05-06T13:34:58.332Z,101725.94
2023-05-06T13:37:31.931Z,101726.28
2023-05-06T13:43:13.547Z,101722.63
2023-05-06T13:45:44.668Z,101717.03
2023-05-06T13:48:14.080Z,101716.00
2023-05-06T13:50:44.674Z,101717.41
2023-05-06T13:53:24.440Z,101710.28
2023-05-06T13:55:54.316Z,101708.59
2023-05-06T13:58:26.321Z,101711.47
2023-05-06T14:00:58.550Z,101707.44
2023-05-06T14:03:28.210Z,101704.81
2023-05-06T14:05:58.305Z,101709.94
2023-05-06T14:08:27.065Z,101713.66
2023-05-06T14:10:55.469Z,101704.63
2023-05-06T14:13:34.962Z,101705.19
2023-05-06T14:16:04.843Z,101699.25
2023-05-06T14:18:35.662Z,101692.47
2023-05-06T14:21:04.714Z,101692.75
2023-05-06T14:23:38.762Z,101690.78
2023-05-06T14:26:10.334Z,101690.16
2023-05-06T14:28:41.245Z,101684.44
2023-05-06T14:31:10.178Z,101689.63
2023-05-06T14:33:40.983Z,101686.78
2023-05-06T14:36:10.279Z,101688.09
2023-05-06T14:38:42.035Z,101688.50
2023-05-06T14:41:14.015Z,101693.34
2023-05-06T14:43:49.124Z,101679.59
2023-05-06T14:46:20.780Z,101677.75
2023-05-06T14:48:49.577Z,101673.44
2023-05-06T14:51:19.013Z,101676.34
2023-05-06T14:53:48.261Z,101679.41
2023-05-06T14:56:29.302Z,101672.47
2023-05-06T14:58:59.990Z,101673.19
2023-05-06T15:01:30.760Z,101677.75
2023-05-06T15:04:00.005Z,101677.28
2023-05-06T15:06:33.636Z,101666.56
2023-05-06T15:09:04.452Z,101664.41
2023-05-06T15:11:33.778Z,101674.06
2023-05-06T15:14:04.103Z,101664.72
2023-05-06T15:16:36.226Z,101660.22
2023-05-06T15:19:06.707Z,101663.25
2023-05-06T15:21:36.222Z,101661.94
2023-05-06T15:24:07.674Z,101666.03
2023-05-06T15:26:36.690Z,101663.03
2023-05-06T15:29:08.381Z,101663.31
2023-05-06T15:31:40.082Z,101669.09
2023-05-06T15:34:09.017Z,101654.34
2023-05-06T15:36:38.115Z,101654.84
2023-05-06T15:39:12.867Z,101659.34
2023-05-06T15:41:43.023Z,101658.81
2023-05-06T15:44:16.244Z,101654.22
2023-05-06T15:46:46.302Z,101651.69
2023-05-06T15:51:59.099Z,101648.63
2023-05-06T15:54:32.701Z,101656.72
2023-05-06T15:57:11.813Z,101652.19
2023-05-06T15:59:45.552Z,101659.00
2023-05-06T16:04:51.171Z,101653.09
2023-05-06T16:07:22.143Z,101656.78
2023-05-06T16:09:51.930Z,101656.03
2023-05-06T16:12:24.755Z,101653.44
2023-05-06T16:14:56.080Z,101656.31
2023-05-06T16:17:26.141Z,101663.94
2023-05-06T16:19:57.630Z,101653.25
2023-05-06T16:22:28.052Z,101649.94
2023-05-06T16:24:58.407Z,101657.94
2023-05-06T16:27:29.329Z,101660.84
2023-05-06T16:30:02.686Z,101662.16
2023-05-06T16:32:32.335Z,101659.81
2023-05-06T16:35:03.486Z,101667.00
2023-05-06T16:37:34.876Z,101661.63
2023-05-06T16:40:03.525Z,101669.69
2023-05-06T16:42:33.991Z,101665.97
2023-05-06T16:45:09.069Z,101655.53
2023-05-06T16:47:39.530Z,101658.56
2023-05-06T16:50:10.917Z,101657.94
2023-05-06T16:52:40.455Z,101661.84
2023-05-06T16:55:13.750Z,101655.09
2023-05-06T16:57:47.431Z,101655.63
2023-05-06T17:00:23.606Z,101656.94
2023-05-06T17:02:52.955Z,101652.63
2023-05-06T17:05:23.012Z,101656.38
2023-05-06T17:07:53.570Z,101664.47
2023-05-06T17:10:24.967Z,101658.34
2023-05-06T17:12:54.069Z,101654.72
2023-05-06T17:15:29.107Z,101658.56
2023-05-06T17:17:59.279Z,101660.44
2023-05-06T17:20:31.298Z,101660.88
2023-05-06T17:23:00.009Z,101667.75
2023-05-06T17:25:31.420Z,101662.56
2023-05-06T17:28:00.453Z,101663.44
2023-05-06T17:30:33.303Z,101665.88
2023-05-06T17:33:02.096Z,101659.47
2023-05-06T17:35:33.692Z,101661.72
2023-05-06T17:38:02.629Z,101669.25
2023-05-06T17:40:32.255Z,101667.19
2023-05-06T17:43:01.038Z,101672.97
2023-05-06T17:45:34.522Z,101674.88
2023-05-06T17:48:04.014Z,101674.50
2023-05-06T17:50:33.438Z,101675.09
2023-05-06T17:53:02.246Z,101672.28
2023-05-06T17:55:32.801Z,101677.41
2023-05-06T17:58:03.227Z,101671.53
2023-05-06T18:00:35.404Z,101668.47
2023-05-06T18:03:08.501Z,101670.69
2023-05-06T18:05:42.662Z,101677.63
2023-05-06T18:08:17.598Z,101685.50
2023-05-06T18:10:46.965Z,101692.09
2023-05-06T18:13:17.257Z,101689.13
2023-05-06T18:15:47.588Z,101684.59
2023-05-06T18:18:17.972Z,101686.00
2023-05-06T18:20:47.151Z,101702.69
2023-05-06T18:23:16.340Z,101697.13
2023-05-06T18:25:45.151Z,101691.50
2023-05-06T18:28:14.154Z,101705.69
2023-05-06T18:30:43.019Z,101711.69
2023-05-06T18:33:13.334Z,101704.00
2023-05-06T18:35:45.749Z,101704.22
2023-05-06T18:38:19.227Z,101705.19
2023-05-06T18:40:49.285Z,101709.34
2023-05-06T18:43:17.933Z,101706.22
2023-05-06T18:45:49.243Z,101733.66
2023-05-06T18:48:36.788Z,101759.38
2023-05-06T18:51:26.718Z,101791.50
2023-05-06T18:54:27.381Z,101777.16
2023-05-06T18:57:12.630Z,101797.13
2023-05-06T18:59:44.163Z,101803.47
2023-05-06T19:02:20.124Z,101800.47
2023-05-06T19:05:08.097Z,101800.38
2023-05-06T19:07:40.087Z,101857.63
2023-05-06T19:10:14.236Z,101796.25
2023-05-06T19:12:57.238Z,101798.75
2023-05-06T19:15:42.539Z,101785.13
2023-05-06T19:18:14.259Z,101785.47
2023-05-06T19:20:55.438Z,101798.00
2023-05-06T19:23:28.397Z,101793.44
2023-05-06T19:26:03.016Z,101798.69
2023-05-06T19:28:38.113Z,101789.91
2023-05-06T19:31:20.758Z,101788.69
2023-05-06T19:33:53.408Z,101784.16
2023-05-06T19:36:38.823Z,101786.88
2023-05-06T19:39:09.815Z,101780.50
2023-05-06T19:41:56.052Z,101780.47
2023-05-06T19:44:42.057Z,101777.78
2023-05-06T19:47:17.365Z,101782.66
2023-05-06T19:49:55.104Z,101778.88
2023-05-06T19:52:46.929Z,101776.69
2023-05-06T19:55:58.334Z,101777.56
2023-05-06T19:58:30.282Z,101767.03
2023-05-06T20:01:01.213Z,101779.50
2023-05-06T20:03:32.057Z,101779.84
2023-05-06T20:06:05.742Z,101780.91
2023-05-06T20:08:36.633Z,101776.16
2023-05-06T20:11:07.715Z,101782.66
2023-05-06T20:13:36.255Z,101775.72
2023-05-06T20:16:12.773Z,101783.59
2023-05-06T20:18:43.007Z,101779.59
2023-05-06T20:21:14.483Z,101786.97
2023-05-06T20:23:48.166Z,101784.41
2023-05-06T20:26:18.357Z,101780.28
2023-05-06T20:28:47.465Z,101781.13
2023-05-06T20:31:18.058Z,101781.00
2023-05-06T20:33:47.788Z,101783.84
2023-05-06T20:36:18.126Z,101776.56
2023-05-06T20:38:49.321Z,101772.88
2023-05-06T20:41:18.796Z,101778.63
2023-05-06T20:43:50.361Z,101790.03
2023-05-06T20:46:20.878Z,101782.75
2023-05-06T20:48:52.281Z,101783.28
2023-05-06T20:51:22.612Z,101793.50
2023-05-06T20:54:01.379Z,101796.09
2023-05-06T20:56:32.387Z,101795.13
2023-05-06T20:59:01.573Z,101801.28
2023-05-06T21:01:41.243Z,101794.22
2023-05-06T21:04:10.922Z,101786.00
2023-05-06T21:06:41.065Z,101785.13
2023-05-06T21:09:12.291Z,101793.94
2023-05-06T21:11:46.389Z,101802.22
2023-05-06T21:14:16.368Z,101792.84
2023-05-06T21:16:47.881Z,101789.72
2023-05-06T21:19:17.162Z,101787.72
2023-05-06T21:21:47.794Z,101781.72
2023-05-06T21:24:24.060Z,101785.00
2023-05-06T21:27:00.464Z,101774.31
2023-05-06T21:29:29.954Z,101776.59
2023-05-06T21:32:01.065Z,101777.38
2023-05-06T21:34:30.684Z,101765.66
2023-05-06T21:36:59.077Z,101762.94
2023-05-06T21:39:29.676Z,101770.88
2023-05-06T21:41:58.064Z,101768.78
2023-05-06T21:44:26.842Z,101765.13
2023-05-06T21:46:58.759Z,101767.28
2023-05-06T21:49:28.330Z,101759.03
2023-05-06T21:51:58.593Z,101768.34
2023-05-06T21:54:31.543Z,101776.88
2023-05-06T21:57:08.200Z,101772.44
2023-05-06T21:59:37.630Z,101767.25
2023-05-06T22:02:06.697Z,101780.03
2023-05-06T22:04:35.832Z,101782.28
2023-05-06T22:07:05.411Z,101779.13
2023-05-06T22:09:36.839Z,101772.75
2023-05-06T22:12:08.603Z,101773.47
2023-05-06T22:14:41.411Z,101772.00
2023-05-06T22:17:13.694Z,101774.69
2023-05-06T22:19:45.077Z,101781.28
2023-05-06T22:22:15.609Z,101781.00
2023-05-06T22:24:47.380Z,101773.63
2023-05-06T22:27:17.013Z,101781.25
2023-05-06T22:29:45.655Z,101770.59
2023-05-06T22:32:17.140Z,101781.81
2023-05-06T22:34:45.702Z,101788.19
2023-05-06T22:37:31.651Z,101795.00
2023-05-06T22:40:04.367Z,101809.22
2023-05-06T22:42:33.150Z,101803.31
2023-05-06T22:45:04.599Z,101810.31
2023-05-06T22:47:34.742Z,101812.53
2023-05-06T22:50:04.043Z,101809.69
2023-05-06T22:52:33.057Z,101814.75
2023-05-06T22:55:07.154Z,101817.88
2023-05-06T22:57:37.733Z,101813.28
2023-05-06T23:00:11.582Z,101817.22
2023-05-06T23:02:40.817Z,101810.91
2023-05-06T23:05:10.857Z,101807.25
2023-05-06T23:07:40.369Z,101817.81
2023-05-06T23:10:16.384Z,101827.34
2023-05-06T23:12:46.261Z,101808.69
2023-05-06T23:15:15.229Z,101825.22
2023-05-06T23:17:44.089Z,101812.09
2023-05-06T23:20:17.186Z,101820.19
2023-05-06T23:22:48.154Z,101818.13
2023-05-06T23:25:21.036Z,101822.25
2023-05-06T23:27:51.207Z,101817.72
2023-05-06T23:30:21.485Z,101835.56
2023-05-06T23:32:51.939Z,101835.56
2023-05-06T23:35:22.434Z,101833.91
2023-05-06T23:37:53.912Z,101838.50
2023-05-06T23:40:24.628Z,101842.28
2023-05-06T23:42:54.794Z,101828.50
2023-05-06T23:45:24.042Z,101829.91
2023-05-06T23:47:53.982Z,101816.59
2023-05-06T23:50:23.658Z,101825.06
2023-05-06T23:52:53.074Z,101827.63
2023-05-06T23:55:26.119Z,101832.59
2023-05-06T23:58:00.379Z,101827.00
